sensor_id;sensor_type;location;lat;lon;timestamp;P1;durP1;ratioP1;P2;durP2;ratioP2
15976;SDS011;8091;51.914;12.786;2022-07-23T00:00:58;7.72;;;5.18;;
15976;SDS011;8091;51.914;12.786;2022-07-23T00:03:23;7.45;;;4.82;;
15976;SDS011;8091;51.914;12.786;2022-07-23T00:05:49;8.15;;;5.10;;
15976;SDS011;8091;51.914;12.786;2022-07-23T00:08:15;6.60;;;4.97;;
15976;SDS011;8091;51.914;12.786;2022-07-23T00:10:41;6.18;;;4.97;;
15976;SDS011;8091;51.914;12.786;2022-07-23T00:13:07;11.35;;;5.50;;
15976;SDS011;8091;51.914;12.786;2022-07-23T00:15:33;8.60;;;5.18;;
15976;SDS011;8091;51.914;12.786;2022-07-23T00:17:58;6.47;;;5.30;;
15976;SDS011;8091;51.914;12.786;2022-07-23T00:20:24;5.78;;;5.13;;
15976;SDS011;8091;51.914;12.786;2022-07-23T00:22:51;6.82;;;5.25;;
15976;SDS011;8091;51.914;12.786;2022-07-23T00:25:19;5.60;;;4.90;;
15976;SDS011;8091;51.914;12.786;2022-07-23T00:27:46;8.05;;;4.60;;
15976;SDS011;8091;51.914;12.786;2022-07-23T00:30:12;6.10;;;4.80;;
15976;SDS011;8091;51.914;12.786;2022-07-23T00:32:45;7.45;;;4.97;;
15976;SDS011;8091;51.914;12.786;2022-07-23T00:35:15;7.00;;;4.78;;
15976;SDS011;8091;51.914;12.786;2022-07-23T00:37:41;6.93;;;5.72;;
15976;SDS011;8091;51.914;12.786;2022-07-23T00:40:07;6.25;;;5.20;;
15976;SDS011;8091;51.914;12.786;2022-07-23T00:42:33;7.97;;;5.00;;
15976;SDS011;8091;51.914;12.786;2022-07-23T00:44:59;7.72;;;5.05;;
15976;SDS011;8091;51.914;12.786;2022-07-23T00:47:24;7.97;;;5.15;;
15976;SDS011;8091;51.914;12.786;2022-07-23T00:49:50;7.13;;;5.18;;
15976;SDS011;8091;51.914;12.786;2022-07-23T00:52:16;6.22;;;5.28;;
15976;SDS011;8091;51.914;12.786;2022-07-23T00:54:42;7.15;;;5.38;;
15976;SDS011;8091;51.914;12.786;2022-07-23T00:57:08;5.10;;;4.57;;
15976;SDS011;8091;51.914;12.786;2022-07-23T00:59:34;6.63;;;5.22;;
15976;SDS011;8091;51.914;12.786;2022-07-23T01:01:59;8.60;;;5.18;;
15976;SDS011;8091;51.914;12.786;2022-07-23T01:04:25;5.78;;;4.97;;
15976;SDS011;8091;51.914;12.786;2022-07-23T01:06:50;5.70;;;5.10;;
15976;SDS011;8091;51.914;12.786;2022-07-23T01:09:17;6.85;;;5.25;;
15976;SDS011;8091;51.914;12.786;2022-07-23T01:11:43;5.40;;;4.85;;
15976;SDS011;8091;51.914;12.786;2022-07-23T01:16:38;7.30;;;5.32;;
15976;SDS011;8091;51.914;12.786;2022-07-23T01:19:04;8.35;;;5.50;;
15976;SDS011;8091;51.914;12.786;2022-07-23T01:21:32;8.18;;;5.47;;
15976;SDS011;8091;51.914;12.786;2022-07-23T01:24:00;6.13;;;5.53;;
15976;SDS011;8091;51.914;12.786;2022-07-23T01:26:26;9.25;;;5.53;;
15976;SDS011;8091;51.914;12.786;2022-07-23T01:28:52;7.72;;;5.82;;
15976;SDS011;8091;51.914;12.786;2022-07-23T01:31:17;5.03;;;4.53;;
15976;SDS011;8091;51.914;12.786;2022-07-23T01:33:44;7.85;;;5.70;;
15976;SDS011;8091;51.914;12.786;2022-07-23T01:36:09;5.78;;;5.03;;
15976;SDS011;8091;51.914;12.786;2022-07-23T01:38:35;5.70;;;5.15;;
15976;SDS011;8091;51.914;12.786;2022-07-23T01:41:00;8.05;;;5.80;;
15976;SDS011;8091;51.914;12.786;2022-07-23T01:43:26;8.23;;;5.15;;
15976;SDS011;8091;51.914;12.786;2022-07-23T01:45:52;9.32;;;6.22;;
15976;SDS011;8091;51.914;12.786;2022-07-23T01:48:17;6.15;;;5.35;;
15976;SDS011;8091;51.914;12.786;2022-07-23T01:50:43;6.75;;;5.25;;
15976;SDS011;8091;51.914;12.786;2022-07-23T01:53:10;6.63;;;5.07;;
15976;SDS011;8091;51.914;12.786;2022-07-23T01:55:36;7.93;;;5.53;;
15976;SDS011;8091;51.914;12.786;2022-07-23T01:58:01;5.90;;;5.13;;
15976;SDS011;8091;51.914;12.786;2022-07-23T02:00:27;8.13;;;5.75;;
15976;SDS011;8091;51.914;12.786;2022-07-23T02:02:52;6.75;;;5.20;;
15976;SDS011;8091;51.914;12.786;2022-07-23T02:05:18;7.15;;;5.40;;
15976;SDS011;8091;51.914;12.786;2022-07-23T02:07:43;8.50;;;5.63;;
15976;SDS011;8091;51.914;12.786;2022-07-23T02:10:09;7.28;;;5.00;;
15976;SDS011;8091;51.914;12.786;2022-07-23T02:12:35;6.20;;;4.78;;
15976;SDS011;8091;51.914;12.786;2022-07-23T02:15:00;6.82;;;4.88;;
15976;SDS011;8091;51.914;12.786;2022-07-23T02:17:26;6.45;;;4.93;;
15976;SDS011;8091;51.914;12.786;2022-07-23T02:19:52;6.95;;;4.68;;
15976;SDS011;8091;51.914;12.786;2022-07-23T02:22:17;7.03;;;4.43;;
15976;SDS011;8091;51.914;12.786;2022-07-23T02:24:43;7.57;;;5.18;;
15976;SDS011;8091;51.914;12.786;2022-07-23T02:27:08;10.40;;;4.85;;
15976;SDS011;8091;51.914;12.786;2022-07-23T02:29:34;6.07;;;4.70;;
15976;SDS011;8091;51.914;12.786;2022-07-23T02:31:59;7.05;;;4.97;;
15976;SDS011;8091;51.914;12.786;2022-07-23T02:34:25;8.48;;;5.10;;
15976;SDS011;8091;51.914;12.786;2022-07-23T02:36:50;8.40;;;4.82;;
15976;SDS011;8091;51.914;12.786;2022-07-23T02:39:16;14.30;;;4.68;;
15976;SDS011;8091;51.914;12.786;2022-07-23T02:41:41;5.85;;;4.80;;
15976;SDS011;8091;51.914;12.786;2022-07-23T02:44:07;5.78;;;4.72;;
15976;SDS011;8091;51.914;12.786;2022-07-23T02:46:33;9.45;;;5.07;;
15976;SDS011;8091;51.914;12.786;2022-07-23T02:48:58;5.22;;;4.40;;
15976;SDS011;8091;51.914;12.786;2022-07-23T02:51:24;6.40;;;4.95;;
15976;SDS011;8091;51.914;12.786;2022-07-23T02:53:49;7.40;;;4.78;;
15976;SDS011;8091;51.914;12.786;2022-07-23T02:56:15;4.80;;;4.18;;
15976;SDS011;8091;51.914;12.786;2022-07-23T02:58:40;4.35;;;3.95;;
15976;SDS011;8091;51.914;12.786;2022-07-23T03:01:06;11.13;;;4.00;;
15976;SDS011;8091;51.914;12.786;2022-07-23T03:03:31;6.90;;;4.40;;
15976;SDS011;8091;51.914;12.786;2022-07-23T03:05:57;6.03;;;3.70;;
15976;SDS011;8091;51.914;12.786;2022-07-23T03:08:23;7.88;;;3.85;;
15976;SDS011;8091;51.914;12.786;2022-07-23T03:10:49;4.30;;;3.42;;
15976;SDS011;8091;51.914;12.786;2022-07-23T03:13:14;5.43;;;3.70;;
15976;SDS011;8091;51.914;12.786;2022-07-23T03:15:41;6.65;;;3.80;;
15976;SDS011;8091;51.914;12.786;2022-07-23T03:18:07;6.03;;;3.88;;
15976;SDS011;8091;51.914;12.786;2022-07-23T03:20:32;5.28;;;3.75;;
15976;SDS011;8091;51.914;12.786;2022-07-23T03:22:58;7.80;;;3.65;;
15976;SDS011;8091;51.914;12.786;2022-07-23T03:25:23;7.15;;;3.40;;
15976;SDS011;8091;51.914;12.786;2022-07-23T03:27:49;7.63;;;3.67;;
15976;SDS011;8091;51.914;12.786;2022-07-23T03:30:14;7.88;;;3.80;;
15976;SDS011;8091;51.914;12.786;2022-07-23T03:32:40;6.43;;;3.72;;
15976;SDS011;8091;51.914;12.786;2022-07-23T03:35:06;5.60;;;3.67;;
15976;SDS011;8091;51.914;12.786;2022-07-23T03:37:32;6.57;;;3.80;;
15976;SDS011;8091;51.914;12.786;2022-07-23T03:39:57;7.00;;;3.92;;
15976;SDS011;8091;51.914;12.786;2022-07-23T03:42:23;7.90;;;3.40;;
15976;SDS011;8091;51.914;12.786;2022-07-23T03:44:48;5.43;;;3.67;;
15976;SDS011;8091;51.914;12.786;2022-07-23T03:47:14;5.65;;;3.40;;
15976;SDS011;8091;51.914;12.786;2022-07-23T03:49:40;5.97;;;3.47;;
15976;SDS011;8091;51.914;12.786;2022-07-23T03:52:06;7.53;;;3.90;;
15976;SDS011;8091;51.914;12.786;2022-07-23T03:54:31;8.27;;;4.40;;
15976;SDS011;8091;51.914;12.786;2022-07-23T03:56:57;5.70;;;4.22;;
15976;SDS011;8091;51.914;12.786;2022-07-23T03:59:22;4.28;;;3.63;;
15976;SDS011;8091;51.914;12.786;2022-07-23T04:01:48;8.00;;;3.97;;
15976;SDS011;8091;51.914;12.786;2022-07-23T04:04:13;5.97;;;4.80;;
15976;SDS011;8091;51.914;12.786;2022-07-23T04:06:39;5.13;;;3.63;;
15976;SDS011;8091;51.914;12.786;2022-07-23T04:09:04;7.55;;;4.10;;
15976;SDS011;8091;51.914;12.786;2022-07-23T04:11:30;7.45;;;4.15;;
15976;SDS011;8091;51.914;12.786;2022-07-23T04:13:56;6.72;;;3.47;;
15976;SDS011;8091;51.914;12.786;2022-07-23T04:16:21;7.78;;;4.60;;
15976;SDS011;8091;51.914;12.786;2022-07-23T04:18:47;6.95;;;4.07;;
15976;SDS011;8091;51.914;12.786;2022-07-23T04:21:12;8.52;;;3.47;;
15976;SDS011;8091;51.914;12.786;2022-07-23T04:23:38;5.70;;;3.95;;
15976;SDS011;8091;51.914;12.786;2022-07-23T04:26:04;7.03;;;3.25;;
15976;SDS011;8091;51.914;12.786;2022-07-23T04:28:29;7.40;;;3.25;;
15976;SDS011;8091;51.914;12.786;2022-07-23T04:30:58;6.10;;;4.03;;
15976;SDS011;8091;51.914;12.786;2022-07-23T04:33:24;4.55;;;3.25;;
15976;SDS011;8091;51.914;12.786;2022-07-23T04:35:50;5.72;;;3.58;;
15976;SDS011;8091;51.914;12.786;2022-07-23T04:38:15;5.32;;;3.25;;
15976;SDS011;8091;51.914;12.786;2022-07-23T04:40:41;6.40;;;3.80;;
15976;SDS011;8091;51.914;12.786;2022-07-23T04:43:06;6.05;;;3.53;;
15976;SDS011;8091;51.914;12.786;2022-07-23T04:45:32;6.88;;;3.17;;
15976;SDS011;8091;51.914;12.786;2022-07-23T04:47:57;4.47;;;3.28;;
15976;SDS011;8091;51.914;12.786;2022-07-23T04:50:23;5.20;;;3.22;;
15976;SDS011;8091;51.914;12.786;2022-07-23T04:52:49;4.22;;;3.20;;
15976;SDS011;8091;51.914;12.786;2022-07-23T04:55:14;5.07;;;3.55;;
15976;SDS011;8091;51.914;12.786;2022-07-23T04:57:40;9.93;;;3.45;;
15976;SDS011;8091;51.914;12.786;2022-07-23T05:00:06;6.90;;;3.70;;
15976;SDS011;8091;51.914;12.786;2022-07-23T05:02:33;10.85;;;4.07;;
15976;SDS011;8091;51.914;12.786;2022-07-23T05:04:58;5.13;;;3.88;;
15976;SDS011;8091;51.914;12.786;2022-07-23T05:07:24;4.28;;;3.35;;
15976;SDS011;8091;51.914;12.786;2022-07-23T05:09:49;10.13;;;4.15;;
15976;SDS011;8091;51.914;12.786;2022-07-23T05:12:15;8.27;;;4.28;;
15976;SDS011;8091;51.914;12.786;2022-07-23T05:14:41;6.80;;;4.68;;
15976;SDS011;8091;51.914;12.786;2022-07-23T05:17:07;11.25;;;5.25;;
15976;SDS011;8091;51.914;12.786;2022-07-23T05:19:33;10.48;;;5.80;;
15976;SDS011;8091;51.914;12.786;2022-07-23T05:21:59;10.63;;;5.30;;
15976;SDS011;8091;51.914;12.786;2022-07-23T05:24:25;12.02;;;5.50;;
15976;SDS011;8091;51.914;12.786;2022-07-23T05:26:50;8.05;;;4.97;;
15976;SDS011;8091;51.914;12.786;2022-07-23T05:29:16;8.70;;;5.30;;
15976;SDS011;8091;51.914;12.786;2022-07-23T05:31:42;10.65;;;6.53;;
15976;SDS011;8091;51.914;12.786;2022-07-23T05:34:07;10.02;;;5.85;;
15976;SDS011;8091;51.914;12.786;2022-07-23T05:36:33;11.88;;;6.63;;
15976;SDS011;8091;51.914;12.786;2022-07-23T05:38:59;16.42;;;6.68;;
15976;SDS011;8091;51.914;12.786;2022-07-23T05:41:24;8.63;;;6.15;;
15976;SDS011;8091;51.914;12.786;2022-07-23T05:43:50;7.90;;;5.95;;
15976;SDS011;8091;51.914;12.786;2022-07-23T05:46:15;10.00;;;6.93;;
15976;SDS011;8091;51.914;12.786;2022-07-23T05:48:41;9.10;;;6.32;;
15976;SDS011;8091;51.914;12.786;2022-07-23T05:51:07;11.65;;;6.50;;
15976;SDS011;8091;51.914;12.786;2022-07-23T05:53:34;11.15;;;7.10;;
15976;SDS011;8091;51.914;12.786;2022-07-23T05:56:00;11.13;;;7.38;;
15976;SDS011;8091;51.914;12.786;2022-07-23T05:58:26;10.38;;;6.32;;
15976;SDS011;8091;51.914;12.786;2022-07-23T06:00:52;10.70;;;6.82;;
15976;SDS011;8091;51.914;12.786;2022-07-23T06:03:18;8.82;;;7.07;;
15976;SDS011;8091;51.914;12.786;2022-07-23T06:05:43;10.80;;;6.22;;
15976;SDS011;8091;51.914;12.786;2022-07-23T06:08:09;11.07;;;6.38;;
15976;SDS011;8091;51.914;12.786;2022-07-23T06:10:34;10.60;;;6.75;;
15976;SDS011;8091;51.914;12.786;2022-07-23T06:13:00;12.05;;;6.13;;
15976;SDS011;8091;51.914;12.786;2022-07-23T06:15:25;11.38;;;6.15;;
15976;SDS011;8091;51.914;12.786;2022-07-23T06:17:51;11.68;;;6.18;;
15976;SDS011;8091;51.914;12.786;2022-07-23T06:20:17;9.27;;;6.07;;
15976;SDS011;8091;51.914;12.786;2022-07-23T06:22:42;9.30;;;5.90;;
15976;SDS011;8091;51.914;12.786;2022-07-23T06:25:08;10.60;;;6.68;;
15976;SDS011;8091;51.914;12.786;2022-07-23T06:27:34;9.93;;;5.72;;
15976;SDS011;8091;51.914;12.786;2022-07-23T06:30:00;9.43;;;6.90;;
15976;SDS011;8091;51.914;12.786;2022-07-23T06:32:25;9.02;;;6.70;;
15976;SDS011;8091;51.914;12.786;2022-07-23T06:34:51;9.32;;;6.68;;
15976;SDS011;8091;51.914;12.786;2022-07-23T06:37:17;10.23;;;6.43;;
15976;SDS011;8091;51.914;12.786;2022-07-23T06:39:42;14.63;;;7.55;;
15976;SDS011;8091;51.914;12.786;2022-07-23T06:42:08;8.43;;;6.78;;
15976;SDS011;8091;51.914;12.786;2022-07-23T06:44:35;13.25;;;7.70;;
15976;SDS011;8091;51.914;12.786;2022-07-23T06:47:00;10.43;;;7.10;;
15976;SDS011;8091;51.914;12.786;2022-07-23T06:49:26;10.15;;;6.75;;
15976;SDS011;8091;51.914;12.786;2022-07-23T06:51:52;11.13;;;7.63;;
15976;SDS011;8091;51.914;12.786;2022-07-23T06:54:18;13.75;;;7.90;;
15976;SDS011;8091;51.914;12.786;2022-07-23T06:56:43;12.27;;;7.20;;
15976;SDS011;8091;51.914;12.786;2022-07-23T06:59:10;10.40;;;6.97;;
15976;SDS011;8091;51.914;12.786;2022-07-23T07:01:35;11.95;;;8.57;;
15976;SDS011;8091;51.914;12.786;2022-07-23T07:04:01;9.68;;;7.57;;
15976;SDS011;8091;51.914;12.786;2022-07-23T07:06:27;12.00;;;7.72;;
15976;SDS011;8091;51.914;12.786;2022-07-23T07:08:52;12.65;;;7.15;;
15976;SDS011;8091;51.914;12.786;2022-07-23T07:11:18;14.23;;;7.47;;
15976;SDS011;8091;51.914;12.786;2022-07-23T07:13:44;12.38;;;7.68;;
15976;SDS011;8091;51.914;12.786;2022-07-23T07:16:09;8.27;;;6.47;;
15976;SDS011;8091;51.914;12.786;2022-07-23T07:18:35;10.25;;;7.63;;
15976;SDS011;8091;51.914;12.786;2022-07-23T07:21:00;8.57;;;7.15;;
15976;SDS011;8091;51.914;12.786;2022-07-23T07:23:26;11.52;;;7.53;;
15976;SDS011;8091;51.914;12.786;2022-07-23T07:25:51;12.52;;;7.63;;
15976;SDS011;8091;51.914;12.786;2022-07-23T07:28:17;9.63;;;6.53;;
15976;SDS011;8091;51.914;12.786;2022-07-23T07:30:43;8.00;;;6.30;;
15976;SDS011;8091;51.914;12.786;2022-07-23T07:33:08;7.43;;;6.22;;
15976;SDS011;8091;51.914;12.786;2022-07-23T07:35:34;9.88;;;5.65;;
15976;SDS011;8091;51.914;12.786;2022-07-23T07:37:59;12.13;;;6.50;;
15976;SDS011;8091;51.914;12.786;2022-07-23T07:40:26;8.50;;;5.70;;
15976;SDS011;8091;51.914;12.786;2022-07-23T07:42:52;10.93;;;5.70;;
15976;SDS011;8091;51.914;12.786;2022-07-23T07:45:19;7.47;;;5.47;;
15976;SDS011;8091;51.914;12.786;2022-07-23T07:47:46;9.85;;;5.43;;
15976;SDS011;8091;51.914;12.786;2022-07-23T07:50:12;10.57;;;5.50;;
15976;SDS011;8091;51.914;12.786;2022-07-23T07:52:38;5.82;;;5.05;;
15976;SDS011;8091;51.914;12.786;2022-07-23T07:55:05;9.73;;;6.07;;
15976;SDS011;8091;51.914;12.786;2022-07-23T07:57:32;10.18;;;6.18;;
15976;SDS011;8091;51.914;12.786;2022-07-23T07:59:58;8.63;;;5.13;;
15976;SDS011;8091;51.914;12.786;2022-07-23T08:02:24;7.47;;;5.05;;
15976;SDS011;8091;51.914;12.786;2022-07-23T08:04:53;5.15;;;4.18;;
15976;SDS011;8091;51.914;12.786;2022-07-23T08:07:21;7.47;;;5.18;;
15976;SDS011;8091;51.914;12.786;2022-07-23T08:09:46;10.10;;;5.90;;
15976;SDS011;8091;51.914;12.786;2022-07-23T08:12:12;7.55;;;5.32;;
15976;SDS011;8091;51.914;12.786;2022-07-23T08:14:39;9.10;;;5.47;;
15976;SDS011;8091;51.914;12.786;2022-07-23T08:17:09;6.10;;;5.47;;
15976;SDS011;8091;51.914;12.786;2022-07-23T08:19:35;12.13;;;5.13;;
15976;SDS011;8091;51.914;12.786;2022-07-23T08:22:00;7.80;;;4.93;;
15976;SDS011;8091;51.914;12.786;2022-07-23T08:24:26;7.32;;;5.68;;
15976;SDS011;8091;51.914;12.786;2022-07-23T08:26:51;8.18;;;5.60;;
15976;SDS011;8091;51.914;12.786;2022-07-23T08:29:17;8.55;;;5.05;;
15976;SDS011;8091;51.914;12.786;2022-07-23T08:31:42;7.05;;;5.93;;
15976;SDS011;8091;51.914;12.786;2022-07-23T08:34:10;9.80;;;6.55;;
15976;SDS011;8091;51.914;12.786;2022-07-23T08:36:35;9.57;;;5.72;;
15976;SDS011;8091;51.914;12.786;2022-07-23T08:39:01;7.90;;;5.07;;
15976;SDS011;8091;51.914;12.786;2022-07-23T08:41:28;9.38;;;6.75;;
15976;SDS011;8091;51.914;12.786;2022-07-23T08:43:54;9.43;;;6.32;;
15976;SDS011;8091;51.914;12.786;2022-07-23T08:46:20;6.30;;;5.20;;
15976;SDS011;8091;51.914;12.786;2022-07-23T08:48:47;8.40;;;6.00;;
15976;SDS011;8091;51.914;12.786;2022-07-23T08:51:13;10.93;;;5.85;;
15976;SDS011;8091;51.914;12.786;2022-07-23T08:53:39;11.30;;;5.47;;
15976;SDS011;8091;51.914;12.786;2022-07-23T08:56:06;6.30;;;5.05;;
15976;SDS011;8091;51.914;12.786;2022-07-23T08:58:32;6.82;;;5.47;;
15976;SDS011;8091;51.914;12.786;2022-07-23T09:00:59;10.50;;;5.00;;
15976;SDS011;8091;51.914;12.786;2022-07-23T09:03:29;10.25;;;5.82;;
15976;SDS011;8091;51.914;12.786;2022-07-23T09:05:57;7.68;;;5.43;;
15976;SDS011;8091;51.914;12.786;2022-07-23T09:08:24;9.15;;;5.45;;
15976;SDS011;8091;51.914;12.786;2022-07-23T09:10:59;9.52;;;5.35;;
15976;SDS011;8091;51.914;12.786;2022-07-23T09:16:04;8.68;;;5.60;;
15976;SDS011;8091;51.914;12.786;2022-07-23T09:18:33;7.63;;;5.57;;
15976;SDS011;8091;51.914;12.786;2022-07-23T09:21:22;8.52;;;4.95;;
15976;SDS011;8091;51.914;12.786;2022-07-23T09:23:49;7.18;;;5.90;;
15976;SDS011;8091;51.914;12.786;2022-07-23T09:26:22;7.50;;;5.05;;
15976;SDS011;8091;51.914;12.786;2022-07-23T09:28:50;7.88;;;5.32;;
15976;SDS011;8091;51.914;12.786;2022-07-23T09:31:20;9.25;;;5.60;;
15976;SDS011;8091;51.914;12.786;2022-07-23T09:33:46;8.75;;;5.35;;
15976;SDS011;8091;51.914;12.786;2022-07-23T09:36:12;8.55;;;5.50;;
15976;SDS011;8091;51.914;12.786;2022-07-23T09:38:48;6.13;;;4.85;;
15976;SDS011;8091;51.914;12.786;2022-07-23T09:41:14;6.78;;;4.88;;
15976;SDS011;8091;51.914;12.786;2022-07-23T09:43:40;9.50;;;5.63;;
15976;SDS011;8091;51.914;12.786;2022-07-23T09:46:19;8.75;;;5.85;;
15976;SDS011;8091;51.914;12.786;2022-07-23T09:48:54;7.65;;;5.47;;
15976;SDS011;8091;51.914;12.786;2022-07-23T09:51:24;6.47;;;5.20;;
15976;SDS011;8091;51.914;12.786;2022-07-23T09:54:02;6.82;;;5.13;;
15976;SDS011;8091;51.914;12.786;2022-07-23T09:56:28;8.13;;;5.03;;
15976;SDS011;8091;51.914;12.786;2022-07-23T09:58:54;6.63;;;4.97;;
15976;SDS011;8091;51.914;12.786;2022-07-23T10:01:39;12.25;;;4.75;;
15976;SDS011;8091;51.914;12.786;2022-07-23T10:04:05;7.75;;;4.47;;
15976;SDS011;8091;51.914;12.786;2022-07-23T10:06:32;5.80;;;4.88;;
15976;SDS011;8091;51.914;12.786;2022-07-23T10:08:59;10.15;;;4.93;;
15976;SDS011;8091;51.914;12.786;2022-07-23T10:11:26;6.88;;;4.28;;
15976;SDS011;8091;51.914;12.786;2022-07-23T10:13:53;6.05;;;4.28;;
15976;SDS011;8091;51.914;12.786;2022-07-23T10:16:21;8.75;;;4.32;;
15976;SDS011;8091;51.914;12.786;2022-07-23T10:18:47;6.70;;;4.18;;
15976;SDS011;8091;51.914;12.786;2022-07-23T10:21:16;7.03;;;4.55;;
15976;SDS011;8091;51.914;12.786;2022-07-23T10:24:04;6.00;;;3.88;;
15976;SDS011;8091;51.914;12.786;2022-07-23T10:26:42;6.63;;;4.20;;
15976;SDS011;8091;51.914;12.786;2022-07-23T10:29:29;6.10;;;5.22;;
15976;SDS011;8091;51.914;12.786;2022-07-23T10:32:36;10.05;;;4.78;;
15976;SDS011;8091;51.914;12.786;2022-07-23T10:35:43;9.07;;;3.72;;
15976;SDS011;8091;51.914;12.786;2022-07-23T10:38:18;4.63;;;3.63;;
15976;SDS011;8091;51.914;12.786;2022-07-23T10:40:59;4.63;;;3.88;;
15976;SDS011;8091;51.914;12.786;2022-07-23T10:43:29;6.55;;;3.72;;
15976;SDS011;8091;51.914;12.786;2022-07-23T10:45:56;7.03;;;3.88;;
15976;SDS011;8091;51.914;12.786;2022-07-23T10:48:46;9.20;;;4.30;;
15976;SDS011;8091;51.914;12.786;2022-07-23T10:54:42;6.03;;;4.32;;
15976;SDS011;8091;51.914;12.786;2022-07-23T10:57:10;7.13;;;4.20;;
15976;SDS011;8091;51.914;12.786;2022-07-23T11:02:33;8.00;;;3.72;;
15976;SDS011;8091;51.914;12.786;2022-07-23T11:05:00;5.32;;;3.50;;
15976;SDS011;8091;51.914;12.786;2022-07-23T11:07:26;6.35;;;3.83;;
15976;SDS011;8091;51.914;12.786;2022-07-23T11:09:53;4.60;;;3.50;;
15976;SDS011;8091;51.914;12.786;2022-07-23T11:17:22;7.55;;;3.63;;
15976;SDS011;8091;51.914;12.786;2022-07-23T11:22:55;5.95;;;3.30;;
15976;SDS011;8091;51.914;12.786;2022-07-23T11:27:46;4.82;;;3.58;;
15976;SDS011;8091;51.914;12.786;2022-07-23T11:32:54;5.50;;;3.88;;
15976;SDS011;8091;51.914;12.786;2022-07-23T11:35:41;4.63;;;3.80;;
15976;SDS011;8091;51.914;12.786;2022-07-23T11:38:19;5.28;;;3.60;;
15976;SDS011;8091;51.914;12.786;2022-07-23T11:40:47;5.75;;;4.22;;
15976;SDS011;8091;51.914;12.786;2022-07-23T11:43:16;3.95;;;3.20;;
15976;SDS011;8091;51.914;12.786;2022-07-23T11:45:46;5.35;;;3.58;;
15976;SDS011;8091;51.914;12.786;2022-07-23T11:48:16;6.40;;;3.53;;
15976;SDS011;8091;51.914;12.786;2022-07-23T11:50:42;6.03;;;4.18;;
15976;SDS011;8091;51.914;12.786;2022-07-23T11:53:08;6.07;;;3.80;;
15976;SDS011;8091;51.914;12.786;2022-07-23T11:55:34;6.35;;;4.03;;
15976;SDS011;8091;51.914;12.786;2022-07-23T11:57:59;7.60;;;4.03;;
15976;SDS011;8091;51.914;12.786;2022-07-23T12:00:26;6.18;;;3.78;;
15976;SDS011;8091;51.914;12.786;2022-07-23T12:02:58;5.50;;;3.60;;
15976;SDS011;8091;51.914;12.786;2022-07-23T12:05:33;5.07;;;3.92;;
15976;SDS011;8091;51.914;12.786;2022-07-23T12:08:02;7.70;;;3.72;;
15976;SDS011;8091;51.914;12.786;2022-07-23T12:10:34;5.38;;;3.80;;
15976;SDS011;8091;51.914;12.786;2022-07-23T12:13:10;7.38;;;3.78;;
15976;SDS011;8091;51.914;12.786;2022-07-23T12:15:39;5.10;;;3.88;;
15976;SDS011;8091;51.914;12.786;2022-07-23T12:18:08;6.38;;;4.40;;
15976;SDS011;8091;51.914;12.786;2022-07-23T12:20:36;8.05;;;4.05;;
15976;SDS011;8091;51.914;12.786;2022-07-23T12:23:04;5.75;;;4.32;;
15976;SDS011;8091;51.914;12.786;2022-07-23T12:25:32;4.15;;;3.70;;
15976;SDS011;8091;51.914;12.786;2022-07-23T12:28:05;5.50;;;4.18;;
15976;SDS011;8091;51.914;12.786;2022-07-23T12:33:04;9.18;;;4.45;;
15976;SDS011;8091;51.914;12.786;2022-07-23T12:35:33;7.05;;;4.20;;
15976;SDS011;8091;51.914;12.786;2022-07-23T12:38:02;5.82;;;4.03;;
15976;SDS011;8091;51.914;12.786;2022-07-23T12:40:34;5.30;;;3.83;;
15976;SDS011;8091;51.914;12.786;2022-07-23T12:43:22;7.88;;;4.90;;
15976;SDS011;8091;51.914;12.786;2022-07-23T12:45:56;6.18;;;3.83;;
15976;SDS011;8091;51.914;12.786;2022-07-23T12:48:49;6.47;;;4.25;;
15976;SDS011;8091;51.914;12.786;2022-07-23T12:53:58;6.32;;;3.92;;
15976;SDS011;8091;51.914;12.786;2022-07-23T12:56:39;9.45;;;4.88;;
15976;SDS011;8091;51.914;12.786;2022-07-23T12:59:15;4.95;;;4.40;;
15976;SDS011;8091;51.914;12.786;2022-07-23T13:01:45;6.80;;;3.67;;
15976;SDS011;8091;51.914;12.786;2022-07-23T13:04:26;6.78;;;4.18;;
15976;SDS011;8091;51.914;12.786;2022-07-23T13:06:59;5.60;;;3.70;;
15976;SDS011;8091;51.914;12.786;2022-07-23T13:09:29;4.88;;;3.83;;
15976;SDS011;8091;51.914;12.786;2022-07-23T13:11:58;3.90;;;3.60;;
15976;SDS011;8091;51.914;12.786;2022-07-23T13:14:30;5.13;;;3.40;;
15976;SDS011;8091;51.914;12.786;2022-07-23T13:16:56;4.38;;;3.05;;
15976;SDS011;8091;51.914;12.786;2022-07-23T13:19:23;7.38;;;3.85;;
15976;SDS011;8091;51.914;12.786;2022-07-23T13:21:52;7.28;;;4.00;;
15976;SDS011;8091;51.914;12.786;2022-07-23T13:24:23;6.03;;;4.35;;
15976;SDS011;8091;51.914;12.786;2022-07-23T13:26:55;4.25;;;3.38;;
15976;SDS011;8091;51.914;12.786;2022-07-23T13:29:25;3.97;;;3.50;;
15976;SDS011;8091;51.914;12.786;2022-07-23T13:31:51;4.20;;;3.50;;
15976;SDS011;8091;51.914;12.786;2022-07-23T13:34:17;5.25;;;3.60;;
15976;SDS011;8091;51.914;12.786;2022-07-23T13:36:46;4.72;;;3.30;;
15976;SDS011;8091;51.914;12.786;2022-07-23T13:39:12;8.15;;;3.67;;
15976;SDS011;8091;51.914;12.786;2022-07-23T13:41:38;5.45;;;3.45;;
15976;SDS011;8091;51.914;12.786;2022-07-23T13:44:04;5.50;;;3.47;;
15976;SDS011;8091;51.914;12.786;2022-07-23T13:46:30;5.72;;;3.58;;
15976;SDS011;8091;51.914;12.786;2022-07-23T13:48:55;5.35;;;3.35;;
15976;SDS011;8091;51.914;12.786;2022-07-23T13:51:21;3.13;;;2.70;;
15976;SDS011;8091;51.914;12.786;2022-07-23T13:53:49;3.70;;;2.78;;
15976;SDS011;8091;51.914;12.786;2022-07-23T13:56:14;5.80;;;3.10;;
15976;SDS011;8091;51.914;12.786;2022-07-23T13:58:40;3.30;;;2.45;;
15976;SDS011;8091;51.914;12.786;2022-07-23T14:01:05;4.75;;;2.80;;
15976;SDS011;8091;51.914;12.786;2022-07-23T14:03:31;3.50;;;2.63;;
15976;SDS011;8091;51.914;12.786;2022-07-23T14:05:57;4.57;;;3.40;;
15976;SDS011;8091;51.914;12.786;2022-07-23T14:08:23;4.40;;;2.88;;
15976;SDS011;8091;51.914;12.786;2022-07-23T14:10:49;6.80;;;2.92;;
15976;SDS011;8091;51.914;12.786;2022-07-23T14:13:15;4.55;;;3.00;;
15976;SDS011;8091;51.914;12.786;2022-07-23T14:15:41;5.85;;;3.25;;
15976;SDS011;8091;51.914;12.786;2022-07-23T14:18:07;6.15;;;3.00;;
15976;SDS011;8091;51.914;12.786;2022-07-23T14:20:32;5.13;;;3.03;;
15976;SDS011;8091;51.914;12.786;2022-07-23T14:22:58;5.93;;;3.00;;
15976;SDS011;8091;51.914;12.786;2022-07-23T14:25:25;6.88;;;2.90;;
15976;SDS011;8091;51.914;12.786;2022-07-23T14:27:51;3.35;;;3.05;;
15976;SDS011;8091;51.914;12.786;2022-07-23T14:30:19;6.30;;;3.15;;
15976;SDS011;8091;51.914;12.786;2022-07-23T14:32:47;4.25;;;3.10;;
15976;SDS011;8091;51.914;12.786;2022-07-23T14:35:13;7.68;;;2.97;;
15976;SDS011;8091;51.914;12.786;2022-07-23T14:37:39;4.20;;;3.00;;
15976;SDS011;8091;51.914;12.786;2022-07-23T14:40:05;3.78;;;2.72;;
15976;SDS011;8091;51.914;12.786;2022-07-23T14:42:31;3.40;;;2.65;;
15976;SDS011;8091;51.914;12.786;2022-07-23T14:44:57;4.03;;;3.22;;
15976;SDS011;8091;51.914;12.786;2022-07-23T14:47:22;3.58;;;2.72;;
15976;SDS011;8091;51.914;12.786;2022-07-23T14:49:48;3.03;;;2.30;;
15976;SDS011;8091;51.914;12.786;2022-07-23T14:52:14;3.90;;;3.00;;
15976;SDS011;8091;51.914;12.786;2022-07-23T14:54:40;3.13;;;2.63;;
15976;SDS011;8091;51.914;12.786;2022-07-23T14:57:05;3.17;;;2.88;;
15976;SDS011;8091;51.914;12.786;2022-07-23T14:59:33;3.97;;;2.40;;
15976;SDS011;8091;51.914;12.786;2022-07-23T15:01:59;3.95;;;3.05;;
15976;SDS011;8091;51.914;12.786;2022-07-23T15:04:24;5.35;;;2.42;;
15976;SDS011;8091;51.914;12.786;2022-07-23T15:06:50;4.05;;;2.55;;
15976;SDS011;8091;51.914;12.786;2022-07-23T15:09:16;3.80;;;2.55;;
15976;SDS011;8091;51.914;12.786;2022-07-23T15:11:41;2.70;;;2.50;;
15976;SDS011;8091;51.914;12.786;2022-07-23T15:14:08;3.45;;;2.75;;
15976;SDS011;8091;51.914;12.786;2022-07-23T15:16:34;3.58;;;2.50;;